Airfield :
LOGIN :

Register | Disclaimer

   EN    FR    IT 

 










Legend :    VFR   Marginal VFR   IFR   Intensive IFR   Very Intensive IFR
Visi :
Ceiling :
>= 8 km
>= 3000ft
5 to 8 km
1000 to 3000 ft
1500m to 5 km
500 to 1000 ft
800 to 1500m
200 to 500 ft
< 800m
< 200 ft
Symbols :   Thunderstorms  Fog  Heavy snow  Heavy precipitations  Wind > 20 kt
SIGMETs :     Misc.  Thunderstorms  Icing  Turbulence  Mountain Waves  Volcanic Ashes






- Airport Elevation : 935 ft


EBFS - Florennes

CURRENT METAR :
  • 270755Z 17010KT 2500 -SNRA FEW003 BKN004 01/00 Q1000 YLO YLO TEMPO AMB

EXPIRED METARs :
  • 270733Z 17010KT 2500 -SNRA SCT006 BKN008 01/00 Q1000 YLO YLO TEMPO AMB
  • 270713Z 17009KT 5000 -SNRA SCT007 BKN011 01/00 Q1001 GRN GRN BECMG YLO
  • 270655Z 17009KT 5000 -SNRA SCT008 BKN020 01/00 Q1001 GRN GRN TEMPO YLO
  • 270633Z 17007KT 4000 -SNRA SCT008 BKN050 01/00 Q1002 GRN GRN TEMPO YLO
  • 270617Z 18008KT 9000 -SHRA FEW006 BKN100 01/00 Q1002 BLU BLU BECMG GRN
  • 270555Z 18008KT 9999 FEW006 BKN100 01/00 Q1002 BLU BLU BECMG GRN
  • 270545Z 17008KT 9999 FEW006 BKN110 01/00 Q1003 BLU BLU BECMG GRN
  • 270525Z AUTO 17007KT 9999 FEW007/// SCT120/// 01/00 Q1003 BLU

TAF TAF EBFS
Valid from the 27 at 07:00 until the 27 at 16:00 UTC


270541Z 2707/2716 16010G22KT 4000 -SNRA SCT007 BKN012
TEMPO 2707/2716 2500 -SN SCT005 BKN010
PROB40
TEMPO 2707/2716 0500 SN BKN001 BKN003
BECMG 2712/2714 34015G25KT



MET'MAP, your aeronautical weather chart ! - Copyright ORBIFLY December 2007 - Disclaimer

ORBIFLY MET'MAP TEAM :

Programming & Development : Alexandra Zaïnal
Concept & original design : Baudouin d'Aumeries
Assistance for programming : Marc-Olivier Méhu
Technical & hardware support : Manuel Goepfert

Contact : metmap@orbifly.com




SOURCES & CREDITS :

   NOAA